sensor_id;sensor_type;location;lat;lon;timestamp;temperature;humidity
40534;DHT22;26233;51.894;10.192;2023-02-28T00:01:13;3.10;37.30
40534;DHT22;26233;51.894;10.192;2023-02-28T00:03:41;3.10;37.30
40534;DHT22;26233;51.894;10.192;2023-02-28T00:06:08;3.10;37.30
40534;DHT22;26233;51.894;10.192;2023-02-28T00:08:36;3.00;37.30
40534;DHT22;26233;51.894;10.192;2023-02-28T00:11:04;3.10;37.40
40534;DHT22;26233;51.894;10.192;2023-02-28T00:13:36;3.00;37.30
40534;DHT22;26233;51.894;10.192;2023-02-28T00:16:05;3.00;37.40
40534;DHT22;26233;51.894;10.192;2023-02-28T00:18:33;2.90;37.20
40534;DHT22;26233;51.894;10.192;2023-02-28T00:21:00;2.90;37.30
40534;DHT22;26233;51.894;10.192;2023-02-28T00:23:28;2.90;37.30
40534;DHT22;26233;51.894;10.192;2023-02-28T00:25:55;2.90;37.40
40534;DHT22;26233;51.894;10.192;2023-02-28T00:28:23;2.90;37.40
40534;DHT22;26233;51.894;10.192;2023-02-28T00:30:51;2.80;37.30
40534;DHT22;26233;51.894;10.192;2023-02-28T00:33:18;2.80;37.30
40534;DHT22;26233;51.894;10.192;2023-02-28T00:35:45;2.80;37.30
40534;DHT22;26233;51.894;10.192;2023-02-28T00:38:14;2.80;37.40
40534;DHT22;26233;51.894;10.192;2023-02-28T00:40:41;2.70;37.30
40534;DHT22;26233;51.894;10.192;2023-02-28T00:43:08;2.70;37.30
40534;DHT22;26233;51.894;10.192;2023-02-28T00:45:35;2.70;37.40
40534;DHT22;26233;51.894;10.192;2023-02-28T00:48:04;2.70;37.50
40534;DHT22;26233;51.894;10.192;2023-02-28T00:50:31;2.60;37.40
40534;DHT22;26233;51.894;10.192;2023-02-28T00:52:58;2.60;37.50
40534;DHT22;26233;51.894;10.192;2023-02-28T00:55:25;2.60;37.50
40534;DHT22;26233;51.894;10.192;2023-02-28T00:57:52;2.60;37.60
40534;DHT22;26233;51.894;10.192;2023-02-28T01:00:20;2.50;37.50
40534;DHT22;26233;51.894;10.192;2023-02-28T01:02:47;2.60;37.70
40534;DHT22;26233;51.894;10.192;2023-02-28T01:05:15;2.50;37.60
40534;DHT22;26233;51.894;10.192;2023-02-28T01:07:42;2.60;37.70
40534;DHT22;26233;51.894;10.192;2023-02-28T01:10:10;2.50;37.70
40534;DHT22;26233;51.894;10.192;2023-02-28T01:12:37;2.60;37.80
40534;DHT22;26233;51.894;10.192;2023-02-28T01:15:05;2.60;37.80
40534;DHT22;26233;51.894;10.192;2023-02-28T01:17:33;2.60;37.80
40534;DHT22;26233;51.894;10.192;2023-02-28T01:20:00;2.50;37.70
40534;DHT22;26233;51.894;10.192;2023-02-28T01:22:28;2.60;37.80
40534;DHT22;26233;51.894;10.192;2023-02-28T01:24:55;2.60;37.90
40534;DHT22;26233;51.894;10.192;2023-02-28T01:27:22;2.60;37.90
40534;DHT22;26233;51.894;10.192;2023-02-28T01:29:51;2.60;37.90
40534;DHT22;26233;51.894;10.192;2023-02-28T01:32:18;2.60;37.90
40534;DHT22;26233;51.894;10.192;2023-02-28T01:34:45;2.60;37.90
40534;DHT22;26233;51.894;10.192;2023-02-28T01:37:12;2.70;38.00
40534;DHT22;26233;51.894;10.192;2023-02-28T01:39:40;2.70;38.00
40534;DHT22;26233;51.894;10.192;2023-02-28T01:42:09;2.70;38.00
40534;DHT22;26233;51.894;10.192;2023-02-28T01:45:06;2.70;38.00
40534;DHT22;26233;51.894;10.192;2023-02-28T01:47:42;2.70;38.00
40534;DHT22;26233;51.894;10.192;2023-02-28T01:50:13;2.70;38.00
40534;DHT22;26233;51.894;10.192;2023-02-28T01:52:43;2.70;38.00
40534;DHT22;26233;51.894;10.192;2023-02-28T01:55:15;2.70;38.10
40534;DHT22;26233;51.894;10.192;2023-02-28T01:57:48;2.70;38.10
40534;DHT22;26233;51.894;10.192;2023-02-28T02:00:21;2.80;38.20
40534;DHT22;26233;51.894;10.192;2023-02-28T02:02:51;2.80;38.20
40534;DHT22;26233;51.894;10.192;2023-02-28T02:05:22;2.80;38.20
40534;DHT22;26233;51.894;10.192;2023-02-28T02:07:54;2.80;38.20
40534;DHT22;26233;51.894;10.192;2023-02-28T02:10:30;2.80;38.20
40534;DHT22;26233;51.894;10.192;2023-02-28T02:13:24;2.80;38.20
40534;DHT22;26233;51.894;10.192;2023-02-28T02:16:08;2.80;38.20
40534;DHT22;26233;51.894;10.192;2023-02-28T02:18:43;2.80;38.20
40534;DHT22;26233;51.894;10.192;2023-02-28T02:28:25;2.80;38.20
40534;DHT22;26233;51.894;10.192;2023-02-28T02:31:29;2.80;38.20
40534;DHT22;26233;51.894;10.192;2023-02-28T02:34:28;2.80;38.20
40534;DHT22;26233;51.894;10.192;2023-02-28T02:37:07;2.80;38.20
40534;DHT22;26233;51.894;10.192;2023-02-28T02:39:43;2.80;38.80
40534;DHT22;26233;51.894;10.192;2023-02-28T02:42:18;2.80;38.20
40534;DHT22;26233;51.894;10.192;2023-02-28T02:44:51;2.80;38.30
40534;DHT22;26233;51.894;10.192;2023-02-28T02:47:24;2.80;38.30
40534;DHT22;26233;51.894;10.192;2023-02-28T02:49:56;2.80;38.30
40534;DHT22;26233;51.894;10.192;2023-02-28T02:52:36;2.80;38.90
40534;DHT22;26233;51.894;10.192;2023-02-28T02:55:07;2.80;38.30
40534;DHT22;26233;51.894;10.192;2023-02-28T02:57:42;2.80;38.30
40534;DHT22;26233;51.894;10.192;2023-02-28T03:00:12;2.80;38.90
40534;DHT22;26233;51.894;10.192;2023-02-28T03:02:42;2.80;38.20
40534;DHT22;26233;51.894;10.192;2023-02-28T03:05:18;2.80;38.20
40534;DHT22;26233;51.894;10.192;2023-02-28T03:07:46;2.80;38.10
40534;DHT22;26233;51.894;10.192;2023-02-28T03:10:33;2.70;38.60
40534;DHT22;26233;51.894;10.192;2023-02-28T03:13:13;2.70;38.00
40534;DHT22;26233;51.894;10.192;2023-02-28T03:15:58;2.70;38.00
40534;DHT22;26233;51.894;10.192;2023-02-28T03:18:42;2.80;38.10
40534;DHT22;26233;51.894;10.192;2023-02-28T03:21:24;2.80;38.00
40534;DHT22;26233;51.894;10.192;2023-02-28T03:24:01;2.70;38.00
40534;DHT22;26233;51.894;10.192;2023-02-28T03:26:31;2.80;38.10
40534;DHT22;26233;51.894;10.192;2023-02-28T03:29:04;2.70;38.00
40534;DHT22;26233;51.894;10.192;2023-02-28T03:31:36;2.70;38.10
40534;DHT22;26233;51.894;10.192;2023-02-28T03:34:08;2.70;38.10
40534;DHT22;26233;51.894;10.192;2023-02-28T03:36:41;2.70;38.00
40534;DHT22;26233;51.894;10.192;2023-02-28T03:39:14;2.70;38.10
40534;DHT22;26233;51.894;10.192;2023-02-28T03:41:46;2.70;38.10
40534;DHT22;26233;51.894;10.192;2023-02-28T03:44:19;2.80;38.20
40534;DHT22;26233;51.894;10.192;2023-02-28T03:46:55;2.70;38.00
40534;DHT22;26233;51.894;10.192;2023-02-28T03:49:30;2.70;38.10
40534;DHT22;26233;51.894;10.192;2023-02-28T03:52:02;2.70;38.10
40534;DHT22;26233;51.894;10.192;2023-02-28T03:54:35;2.80;38.20
40534;DHT22;26233;51.894;10.192;2023-02-28T03:57:07;2.70;38.10
40534;DHT22;26233;51.894;10.192;2023-02-28T03:59:42;2.70;38.10
40534;DHT22;26233;51.894;10.192;2023-02-28T04:02:11;2.70;38.10
40534;DHT22;26233;51.894;10.192;2023-02-28T04:04:38;2.70;38.10
40534;DHT22;26233;51.894;10.192;2023-02-28T04:07:15;2.70;38.10
40534;DHT22;26233;51.894;10.192;2023-02-28T04:09:42;2.70;38.10
40534;DHT22;26233;51.894;10.192;2023-02-28T04:12:10;2.70;38.10
40534;DHT22;26233;51.894;10.192;2023-02-28T04:14:37;2.70;38.10
40534;DHT22;26233;51.894;10.192;2023-02-28T04:17:04;2.70;38.00
40534;DHT22;26233;51.894;10.192;2023-02-28T04:19:31;2.70;38.00
40534;DHT22;26233;51.894;10.192;2023-02-28T04:21:58;2.70;38.00
40534;DHT22;26233;51.894;10.192;2023-02-28T04:24:27;2.60;37.90
40534;DHT22;26233;51.894;10.192;2023-02-28T04:26:56;2.70;38.00
40534;DHT22;26233;51.894;10.192;2023-02-28T04:29:26;2.60;37.80
40534;DHT22;26233;51.894;10.192;2023-02-28T04:31:54;2.70;37.80
40534;DHT22;26233;51.894;10.192;2023-02-28T04:34:23;2.60;37.70
40534;DHT22;26233;51.894;10.192;2023-02-28T04:36:51;2.60;37.70
40534;DHT22;26233;51.894;10.192;2023-02-28T04:39:20;2.50;37.50
40534;DHT22;26233;51.894;10.192;2023-02-28T04:41:49;2.50;38.10
40534;DHT22;26233;51.894;10.192;2023-02-28T04:44:16;2.50;37.50
40534;DHT22;26233;51.894;10.192;2023-02-28T04:46:44;2.50;37.50
40534;DHT22;26233;51.894;10.192;2023-02-28T04:49:11;2.50;37.50
40534;DHT22;26233;51.894;10.192;2023-02-28T04:51:39;2.40;37.40
40534;DHT22;26233;51.894;10.192;2023-02-28T04:54:07;2.40;37.40
40534;DHT22;26233;51.894;10.192;2023-02-28T04:56:34;2.40;38.00
40534;DHT22;26233;51.894;10.192;2023-02-28T04:59:03;2.30;37.40
40534;DHT22;26233;51.894;10.192;2023-02-28T05:01:31;2.30;37.40
40534;DHT22;26233;51.894;10.192;2023-02-28T05:04:01;2.30;37.50
40534;DHT22;26233;51.894;10.192;2023-02-28T05:06:30;2.30;37.60
40534;DHT22;26233;51.894;10.192;2023-02-28T05:08:58;2.30;37.60
40534;DHT22;26233;51.894;10.192;2023-02-28T05:11:27;2.20;37.60
40534;DHT22;26233;51.894;10.192;2023-02-28T05:14:00;2.20;37.70
40534;DHT22;26233;51.894;10.192;2023-02-28T05:16:28;2.20;37.70
40534;DHT22;26233;51.894;10.192;2023-02-28T05:18:55;2.20;37.70
40534;DHT22;26233;51.894;10.192;2023-02-28T05:21:26;2.20;37.80
40534;DHT22;26233;51.894;10.192;2023-02-28T05:23:55;2.10;37.70
40534;DHT22;26233;51.894;10.192;2023-02-28T05:26:24;2.10;37.70
40534;DHT22;26233;51.894;10.192;2023-02-28T05:28:51;2.10;37.70
40534;DHT22;26233;51.894;10.192;2023-02-28T05:31:18;2.00;38.20
40534;DHT22;26233;51.894;10.192;2023-02-28T05:33:47;2.00;37.70
40534;DHT22;26233;51.894;10.192;2023-02-28T05:36:14;1.90;37.50
40534;DHT22;26233;51.894;10.192;2023-02-28T05:38:41;1.90;37.60
40534;DHT22;26233;51.894;10.192;2023-02-28T05:41:09;1.80;37.60
40534;DHT22;26233;51.894;10.192;2023-02-28T05:43:37;1.80;37.70
40534;DHT22;26233;51.894;10.192;2023-02-28T05:46:06;1.80;37.70
40534;DHT22;26233;51.894;10.192;2023-02-28T05:48:35;1.70;37.70
40534;DHT22;26233;51.894;10.192;2023-02-28T05:51:05;1.70;37.80
40534;DHT22;26233;51.894;10.192;2023-02-28T05:53:33;1.70;37.90
40534;DHT22;26233;51.894;10.192;2023-02-28T05:56:00;1.70;37.90
40534;DHT22;26233;51.894;10.192;2023-02-28T05:58:28;1.70;38.00
40534;DHT22;26233;51.894;10.192;2023-02-28T06:00:56;1.70;38.00
40534;DHT22;26233;51.894;10.192;2023-02-28T06:03:23;1.70;38.00
40534;DHT22;26233;51.894;10.192;2023-02-28T06:05:50;1.70;38.10
40534;DHT22;26233;51.894;10.192;2023-02-28T06:08:19;1.70;38.10
40534;DHT22;26233;51.894;10.192;2023-02-28T06:10:46;1.70;38.20
40534;DHT22;26233;51.894;10.192;2023-02-28T06:13:13;1.80;38.20
40534;DHT22;26233;51.894;10.192;2023-02-28T06:15:40;1.80;38.20
40534;DHT22;26233;51.894;10.192;2023-02-28T06:18:07;1.80;38.20
40534;DHT22;26233;51.894;10.192;2023-02-28T06:20:34;1.80;38.30
40534;DHT22;26233;51.894;10.192;2023-02-28T06:23:02;1.80;38.30
40534;DHT22;26233;51.894;10.192;2023-02-28T06:25:30;1.90;38.40
40534;DHT22;26233;51.894;10.192;2023-02-28T06:27:57;1.80;38.40
40534;DHT22;26233;51.894;10.192;2023-02-28T06:30:24;1.90;38.40
40534;DHT22;26233;51.894;10.192;2023-02-28T06:32:53;1.90;38.40
40534;DHT22;26233;51.894;10.192;2023-02-28T06:35:21;1.90;38.40
40534;DHT22;26233;51.894;10.192;2023-02-28T06:37:48;2.00;38.50
40534;DHT22;26233;51.894;10.192;2023-02-28T06:40:15;2.00;38.50
40534;DHT22;26233;51.894;10.192;2023-02-28T06:42:44;2.00;38.50
40534;DHT22;26233;51.894;10.192;2023-02-28T06:45:11;2.00;38.50
40534;DHT22;26233;51.894;10.192;2023-02-28T06:47:39;2.10;38.60
40534;DHT22;26233;51.894;10.192;2023-02-28T06:50:10;2.10;38.70
40534;DHT22;26233;51.894;10.192;2023-02-28T06:52:38;2.10;38.70
40534;DHT22;26233;51.894;10.192;2023-02-28T06:55:06;2.20;38.80
40534;DHT22;26233;51.894;10.192;2023-02-28T06:57:35;2.30;38.90
40534;DHT22;26233;51.894;10.192;2023-02-28T07:00:06;2.40;39.00
40534;DHT22;26233;51.894;10.192;2023-02-28T07:02:37;2.30;38.90
40534;DHT22;26233;51.894;10.192;2023-02-28T07:05:04;2.40;38.90
40534;DHT22;26233;51.894;10.192;2023-02-28T07:07:32;2.40;38.90
40534;DHT22;26233;51.894;10.192;2023-02-28T07:09:59;2.50;39.00
40534;DHT22;26233;51.894;10.192;2023-02-28T07:12:26;2.50;39.00
40534;DHT22;26233;51.894;10.192;2023-02-28T07:14:53;2.60;39.10
40534;DHT22;26233;51.894;10.192;2023-02-28T07:17:22;2.60;39.10
40534;DHT22;26233;51.894;10.192;2023-02-28T07:19:49;2.70;39.20
40534;DHT22;26233;51.894;10.192;2023-02-28T07:22:16;2.80;39.30
40534;DHT22;26233;51.894;10.192;2023-02-28T07:24:43;2.90;39.40
40534;DHT22;26233;51.894;10.192;2023-02-28T07:27:10;2.90;39.40
40534;DHT22;26233;51.894;10.192;2023-02-28T07:29:37;3.00;39.60
40534;DHT22;26233;51.894;10.192;2023-02-28T07:32:05;3.10;39.60
40534;DHT22;26233;51.894;10.192;2023-02-28T07:34:33;3.20;39.70
40534;DHT22;26233;51.894;10.192;2023-02-28T07:37:00;3.40;39.80
40534;DHT22;26233;51.894;10.192;2023-02-28T07:39:29;3.40;39.80
40534;DHT22;26233;51.894;10.192;2023-02-28T07:41:56;3.50;39.90
40534;DHT22;26233;51.894;10.192;2023-02-28T07:44:23;3.60;39.90
40534;DHT22;26233;51.894;10.192;2023-02-28T07:46:50;3.70;39.90
40534;DHT22;26233;51.894;10.192;2023-02-28T07:49:18;3.90;40.00
40534;DHT22;26233;51.894;10.192;2023-02-28T07:51:46;4.00;40.10
40534;DHT22;26233;51.894;10.192;2023-02-28T07:54:13;4.10;40.10
40534;DHT22;26233;51.894;10.192;2023-02-28T07:56:40;4.30;40.30
40534;DHT22;26233;51.894;10.192;2023-02-28T07:59:07;4.40;40.60
40534;DHT22;26233;51.894;10.192;2023-02-28T08:01:37;4.70;41.20
40534;DHT22;26233;51.894;10.192;2023-02-28T08:04:04;5.10;42.00
40534;DHT22;26233;51.894;10.192;2023-02-28T08:06:31;5.60;42.50
40534;DHT22;26233;51.894;10.192;2023-02-28T08:08:59;6.00;42.80
40534;DHT22;26233;51.894;10.192;2023-02-28T08:11:26;6.60;43.40
40534;DHT22;26233;51.894;10.192;2023-02-28T08:13:54;7.30;44.60
40534;DHT22;26233;51.894;10.192;2023-02-28T08:16:21;8.00;45.20
40534;DHT22;26233;51.894;10.192;2023-02-28T08:18:49;8.80;45.50
40534;DHT22;26233;51.894;10.192;2023-02-28T08:21:17;9.70;46.00
40534;DHT22;26233;51.894;10.192;2023-02-28T08:23:46;10.50;44.80
40534;DHT22;26233;51.894;10.192;2023-02-28T08:26:19;11.20;43.60
40534;DHT22;26233;51.894;10.192;2023-02-28T08:28:46;11.70;42.80
40534;DHT22;26233;51.894;10.192;2023-02-28T08:31:14;12.10;42.10
40534;DHT22;26233;51.894;10.192;2023-02-28T08:33:43;12.30;40.90
40534;DHT22;26233;51.894;10.192;2023-02-28T08:36:11;12.40;40.00
40534;DHT22;26233;51.894;10.192;2023-02-28T08:38:39;12.30;38.80
40534;DHT22;26233;51.894;10.192;2023-02-28T08:41:08;12.20;38.60
40534;DHT22;26233;51.894;10.192;2023-02-28T08:43:39;12.00;38.80
40534;DHT22;26233;51.894;10.192;2023-02-28T08:46:07;12.00;38.90
40534;DHT22;26233;51.894;10.192;2023-02-28T08:48:36;12.10;39.40
40534;DHT22;26233;51.894;10.192;2023-02-28T08:51:06;12.20;39.50
40534;DHT22;26233;51.894;10.192;2023-02-28T08:53:35;12.20;38.70
40534;DHT22;26233;51.894;10.192;2023-02-28T08:56:05;12.20;38.50
40534;DHT22;26233;51.894;10.192;2023-02-28T08:58:35;12.20;38.20
40534;DHT22;26233;51.894;10.192;2023-02-28T09:01:10;12.20;38.50
40534;DHT22;26233;51.894;10.192;2023-02-28T09:03:38;12.10;37.50
40534;DHT22;26233;51.894;10.192;2023-02-28T09:06:07;12.10;38.00
40534;DHT22;26233;51.894;10.192;2023-02-28T09:08:35;12.00;37.80
40534;DHT22;26233;51.894;10.192;2023-02-28T09:11:03;12.00;37.60
40534;DHT22;26233;51.894;10.192;2023-02-28T09:13:31;12.00;37.60
40534;DHT22;26233;51.894;10.192;2023-02-28T09:16:00;12.10;38.20
40534;DHT22;26233;51.894;10.192;2023-02-28T09:18:29;12.20;38.40
40534;DHT22;26233;51.894;10.192;2023-02-28T09:20:56;12.30;38.10
40534;DHT22;26233;51.894;10.192;2023-02-28T09:23:24;12.40;37.60
40534;DHT22;26233;51.894;10.192;2023-02-28T09:25:54;12.60;38.00
40534;DHT22;26233;51.894;10.192;2023-02-28T09:28:22;12.80;37.70
40534;DHT22;26233;51.894;10.192;2023-02-28T09:30:51;13.10;38.30
40534;DHT22;26233;51.894;10.192;2023-02-28T09:33:20;13.50;39.10
40534;DHT22;26233;51.894;10.192;2023-02-28T09:35:49;13.70;38.50
40534;DHT22;26233;51.894;10.192;2023-02-28T09:38:17;14.00;38.80
40534;DHT22;26233;51.894;10.192;2023-02-28T09:40:50;14.30;38.80
40534;DHT22;26233;51.894;10.192;2023-02-28T09:43:21;14.70;38.30
40534;DHT22;26233;51.894;10.192;2023-02-28T09:45:54;15.00;38.20
40534;DHT22;26233;51.894;10.192;2023-02-28T09:48:29;15.20;37.60
40534;DHT22;26233;51.894;10.192;2023-02-28T09:51:04;15.30;37.00
40534;DHT22;26233;51.894;10.192;2023-02-28T09:53:33;15.40;37.00
40534;DHT22;26233;51.894;10.192;2023-02-28T09:56:08;15.60;37.40
40534;DHT22;26233;51.894;10.192;2023-02-28T09:58:42;15.70;36.80
40534;DHT22;26233;51.894;10.192;2023-02-28T10:01:18;15.80;35.90
40534;DHT22;26233;51.894;10.192;2023-02-28T10:03:56;16.00;36.60
40534;DHT22;26233;51.894;10.192;2023-02-28T10:06:28;15.90;35.10
40534;DHT22;26233;51.894;10.192;2023-02-28T10:09:00;15.80;34.80
40534;DHT22;26233;51.894;10.192;2023-02-28T10:11:30;15.60;34.00
40534;DHT22;26233;51.894;10.192;2023-02-28T10:14:01;15.20;33.70
40534;DHT22;26233;51.894;10.192;2023-02-28T10:16:34;14.80;33.10
40534;DHT22;26233;51.894;10.192;2023-02-28T10:19:05;14.40;32.40
40534;DHT22;26233;51.894;10.192;2023-02-28T10:21:41;14.20;33.90
40534;DHT22;26233;51.894;10.192;2023-02-28T10:24:20;13.90;33.00
40534;DHT22;26233;51.894;10.192;2023-02-28T10:26:59;13.70;32.90
40534;DHT22;26233;51.894;10.192;2023-02-28T10:29:31;13.60;33.70
40534;DHT22;26233;51.894;10.192;2023-02-28T10:32:02;13.60;33.90
40534;DHT22;26233;51.894;10.192;2023-02-28T10:34:30;13.40;33.20
40534;DHT22;26233;51.894;10.192;2023-02-28T10:36:59;13.10;32.50
40534;DHT22;26233;51.894;10.192;2023-02-28T10:39:41;12.80;32.00
40534;DHT22;26233;51.894;10.192;2023-02-28T10:42:23;12.50;32.10
40534;DHT22;26233;51.894;10.192;2023-02-28T10:45:11;12.50;33.20
40534;DHT22;26233;51.894;10.192;2023-02-28T10:47:49;12.60;32.80
40534;DHT22;26233;51.894;10.192;2023-02-28T10:50:32;12.90;34.60
40534;DHT22;26233;51.894;10.192;2023-02-28T10:53:30;13.20;34.50
40534;DHT22;26233;51.894;10.192;2023-02-28T10:56:02;13.50;34.70
40534;DHT22;26233;51.894;10.192;2023-02-28T10:58:46;13.90;34.50
40534;DHT22;26233;51.894;10.192;2023-02-28T11:01:17;14.10;33.80
40534;DHT22;26233;51.894;10.192;2023-02-28T11:03:45;14.40;35.10
40534;DHT22;26233;51.894;10.192;2023-02-28T11:06:16;14.60;34.80
40534;DHT22;26233;51.894;10.192;2023-02-28T11:08:50;14.80;34.20
40534;DHT22;26233;51.894;10.192;2023-02-28T11:11:23;15.10;34.00
40534;DHT22;26233;51.894;10.192;2023-02-28T11:13:54;15.30;33.60
40534;DHT22;26233;51.894;10.192;2023-02-28T11:16:32;15.30;33.60
40534;DHT22;26233;51.894;10.192;2023-02-28T11:19:00;15.40;33.30
40534;DHT22;26233;51.894;10.192;2023-02-28T11:21:31;15.50;32.50
40534;DHT22;26233;51.894;10.192;2023-02-28T11:24:05;15.50;32.60
40534;DHT22;26233;51.894;10.192;2023-02-28T11:26:41;15.50;32.00
40534;DHT22;26233;51.894;10.192;2023-02-28T11:29:16;15.50;32.30
40534;DHT22;26233;51.894;10.192;2023-02-28T11:32:01;15.30;31.60
40534;DHT22;26233;51.894;10.192;2023-02-28T11:34:37;15.20;30.70
40534;DHT22;26233;51.894;10.192;2023-02-28T11:37:11;15.00;30.80
40534;DHT22;26233;51.894;10.192;2023-02-28T11:39:41;14.80;30.80
40534;DHT22;26233;51.894;10.192;2023-02-28T11:42:23;14.60;30.80
40534;DHT22;26233;51.894;10.192;2023-02-28T11:45:12;14.40;30.80
40534;DHT22;26233;51.894;10.192;2023-02-28T11:47:52;14.30;31.10
40534;DHT22;26233;51.894;10.192;2023-02-28T11:50:36;14.30;31.20
40534;DHT22;26233;51.894;10.192;2023-02-28T11:53:17;14.20;31.10
40534;DHT22;26233;51.894;10.192;2023-02-28T11:55:53;14.10;30.80
40534;DHT22;26233;51.894;10.192;2023-02-28T11:58:31;14.00;30.90
40534;DHT22;26233;51.894;10.192;2023-02-28T12:01:13;13.80;30.50
40534;DHT22;26233;51.894;10.192;2023-02-28T12:03:57;13.70;29.90
40534;DHT22;26233;51.894;10.192;2023-02-28T12:06:33;13.60;30.90
40534;DHT22;26233;51.894;10.192;2023-02-28T12:09:20;13.60;31.30
40534;DHT22;26233;51.894;10.192;2023-02-28T12:12:04;13.50;30.60
40534;DHT22;26233;51.894;10.192;2023-02-28T12:14:57;13.50;30.80
40534;DHT22;26233;51.894;10.192;2023-02-28T12:17:38;13.50;30.60
40534;DHT22;26233;51.894;10.192;2023-02-28T12:20:21;13.40;30.70
40534;DHT22;26233;51.894;10.192;2023-02-28T12:23:15;13.40;30.00
40534;DHT22;26233;51.894;10.192;2023-02-28T12:25:55;13.40;30.40
40534;DHT22;26233;51.894;10.192;2023-02-28T12:28:34;13.40;29.60
40534;DHT22;26233;51.894;10.192;2023-02-28T12:31:08;13.40;30.40
40534;DHT22;26233;51.894;10.192;2023-02-28T12:33:41;13.20;30.00
40534;DHT22;26233;51.894;10.192;2023-02-28T12:36:11;13.10;30.00
40534;DHT22;26233;51.894;10.192;2023-02-28T12:38:46;13.10;30.30
40534;DHT22;26233;51.894;10.192;2023-02-28T12:41:16;13.10;30.30
40534;DHT22;26233;51.894;10.192;2023-02-28T12:43:51;13.10;30.20
40534;DHT22;26233;51.894;10.192;2023-02-28T12:46:25;13.00;30.10
40534;DHT22;26233;51.894;10.192;2023-02-28T12:48:57;12.90;30.00
40534;DHT22;26233;51.894;10.192;2023-02-28T12:51:26;12.90;30.00
40534;DHT22;26233;51.894;10.192;2023-02-28T12:54:02;12.80;29.80
40534;DHT22;26233;51.894;10.192;2023-02-28T12:56:42;12.70;29.90
40534;DHT22;26233;51.894;10.192;2023-02-28T12:59:19;12.70;29.80
40534;DHT22;26233;51.894;10.192;2023-02-28T13:05:32;12.50;29.40
40534;DHT22;26233;51.894;10.192;2023-02-28T13:08:37;12.40;29.60
40534;DHT22;26233;51.894;10.192;2023-02-28T13:11:29;12.20;29.60
40534;DHT22;26233;51.894;10.192;2023-02-28T13:14:01;12.10;29.70
40534;DHT22;26233;51.894;10.192;2023-02-28T13:16:53;12.00;29.80
40534;DHT22;26233;51.894;10.192;2023-02-28T13:19:24;12.00;29.90
40534;DHT22;26233;51.894;10.192;2023-02-28T13:21:53;12.00;29.90
40534;DHT22;26233;51.894;10.192;2023-02-28T13:24:45;11.90;29.60
40534;DHT22;26233;51.894;10.192;2023-02-28T13:27:32;11.80;29.30
40534;DHT22;26233;51.894;10.192;2023-02-28T13:33:28;11.70;29.30
40534;DHT22;26233;51.894;10.192;2023-02-28T13:36:11;11.70;29.90
40534;DHT22;26233;51.894;10.192;2023-02-28T13:38:51;11.60;29.90
40534;DHT22;26233;51.894;10.192;2023-02-28T13:41:44;11.60;29.80
40534;DHT22;26233;51.894;10.192;2023-02-28T13:44:14;11.50;29.40
40534;DHT22;26233;51.894;10.192;2023-02-28T13:47:19;11.50;29.60
40534;DHT22;26233;51.894;10.192;2023-02-28T13:49:50;11.40;29.40
40534;DHT22;26233;51.894;10.192;2023-02-28T13:52:22;11.30;29.50
40534;DHT22;26233;51.894;10.192;2023-02-28T13:55:06;11.30;29.70
40534;DHT22;26233;51.894;10.192;2023-02-28T13:58:06;11.20;29.50
40534;DHT22;26233;51.894;10.192;2023-02-28T14:00:55;11.20;29.70
40534;DHT22;26233;51.894;10.192;2023-02-28T14:06:28;11.20;29.70
40534;DHT22;26233;51.894;10.192;2023-02-28T14:09:00;11.20;29.50
40534;DHT22;26233;51.894;10.192;2023-02-28T14:11:34;11.10;29.40
40534;DHT22;26233;51.894;10.192;2023-02-28T14:14:05;11.00;29.40
40534;DHT22;26233;51.894;10.192;2023-02-28T14:16:39;10.90;29.50
40534;DHT22;26233;51.894;10.192;2023-02-28T14:19:12;10.90;29.30
40534;DHT22;26233;51.894;10.192;2023-02-28T14:21:56;10.80;29.40
40534;DHT22;26233;51.894;10.192;2023-02-28T14:25:03;10.80;29.50
40534;DHT22;26233;51.894;10.192;2023-02-28T14:27:41;10.70;29.30
40534;DHT22;26233;51.894;10.192;2023-02-28T14:30:48;10.70;29.60
40534;DHT22;26233;51.894;10.192;2023-02-28T14:33:25;10.70;29.30
40534;DHT22;26233;51.894;10.192;2023-02-28T14:36:18;10.70;29.60
40534;DHT22;26233;51.894;10.192;2023-02-28T14:38:49;10.60;29.60
40534;DHT22;26233;51.894;10.192;2023-02-28T14:41:23;10.60;29.70
40534;DHT22;26233;51.894;10.192;2023-02-28T14:43:55;10.60;29.60
40534;DHT22;26233;51.894;10.192;2023-02-28T14:46:27;10.50;29.40
40534;DHT22;26233;51.894;10.192;2023-02-28T14:49:00;10.40;29.30
40534;DHT22;26233;51.894;10.192;2023-02-28T14:51:27;10.40;29.40
40534;DHT22;26233;51.894;10.192;2023-02-28T14:53:58;10.30;29.30
40534;DHT22;26233;51.894;10.192;2023-02-28T14:56:28;10.20;29.30
40534;DHT22;26233;51.894;10.192;2023-02-28T14:58:59;10.20;29.20
40534;DHT22;26233;51.894;10.192;2023-02-28T15:01:28;10.10;29.20
40534;DHT22;26233;51.894;10.192;2023-02-28T15:04:01;10.00;29.10
40534;DHT22;26233;51.894;10.192;2023-02-28T15:06:30;10.00;29.30
40534;DHT22;26233;51.894;10.192;2023-02-28T15:09:09;9.90;30.00
40534;DHT22;26233;51.894;10.192;2023-02-28T15:11:37;9.80;29.70
40534;DHT22;26233;51.894;10.192;2023-02-28T15:14:05;9.70;29.80
40534;DHT22;26233;51.894;10.192;2023-02-28T15:16:36;9.60;29.70
40534;DHT22;26233;51.894;10.192;2023-02-28T15:19:06;9.60;29.90
40534;DHT22;26233;51.894;10.192;2023-02-28T15:21:37;9.50;29.60
40534;DHT22;26233;51.894;10.192;2023-02-28T15:24:08;9.40;29.70
40534;DHT22;26233;51.894;10.192;2023-02-28T15:26:42;9.40;29.80
40534;DHT22;26233;51.894;10.192;2023-02-28T15:29:15;9.30;30.00
40534;DHT22;26233;51.894;10.192;2023-02-28T15:31:48;9.20;29.70
40534;DHT22;26233;51.894;10.192;2023-02-28T15:34:20;9.20;29.90
40534;DHT22;26233;51.894;10.192;2023-02-28T15:36:49;9.00;29.70
40534;DHT22;26233;51.894;10.192;2023-02-28T15:39:22;8.90;29.70
40534;DHT22;26233;51.894;10.192;2023-02-28T15:41:50;8.90;29.70
40534;DHT22;26233;51.894;10.192;2023-02-28T15:44:24;8.80;29.80
40534;DHT22;26233;51.894;10.192;2023-02-28T15:46:58;8.70;29.50
40534;DHT22;26233;51.894;10.192;2023-02-28T15:49:28;8.60;29.60
40534;DHT22;26233;51.894;10.192;2023-02-28T15:51:59;8.40;29.60
40534;DHT22;26233;51.894;10.192;2023-02-28T15:54:28;8.40;29.60
40534;DHT22;26233;51.894;10.192;2023-02-28T15:56:58;8.30;29.70
40534;DHT22;26233;51.894;10.192;2023-02-28T15:59:32;8.20;29.70
40534;DHT22;26233;51.894;10.192;2023-02-28T16:02:13;8.10;29.70
40534;DHT22;26233;51.894;10.192;2023-02-28T16:05:16;8.00;29.60
40534;DHT22;26233;51.894;10.192;2023-02-28T16:07:53;7.90;29.40
40534;DHT22;26233;51.894;10.192;2023-02-28T16:10:22;7.90;29.80
40534;DHT22;26233;51.894;10.192;2023-02-28T16:12:53;7.80;29.80
40534;DHT22;26233;51.894;10.192;2023-02-28T16:15:23;7.70;29.70